Time;durP1;ratioP1;P1;durP2;ratioP2;P2;SDS_P1;SDS_P2;PMS_P1;PMS_P2;Temp;Humidity;BMP_temperature;BMP_pressure;BME280_temperature;BME280_humidity;BME280_pressure;Samples;Min_cycle;Max_cycle;Signal;HPM_P1;HPM_P2
2021/05/31 00:02:07;;;;;;;4.18;3.75;;;;;;;15.88;26.98;102032.88;4913956;28;100226;-71
2021/05/31 00:04:35;;;;;;;5.90;3.90;;;;;;;15.86;27.08;102029.25;4899015;28;96983;-71
2021/05/31 00:07:04;;;;;;;4.68;4.20;;;;;;;15.83;26.92;102029.19;4902002;28;97634;-70
2021/05/31 00:09:34;;;;;;;4.22;3.90;;;;;;;15.78;27.23;102028.19;4898393;28;98051;-70
2021/05/31 00:12:03;;;;;;;4.32;4.03;;;;;;;15.75;26.97;102027.22;4901545;28;97917;-71
2021/05/31 00:14:30;;;;;;;4.35;3.95;;;;;;;15.69;27.06;102017.28;4898172;28;98387;-71
2021/05/31 00:16:58;;;;;;;6.13;4.28;;;;;;;15.67;27.30;102026.16;4915340;28;97540;-71
2021/05/31 00:19:25;;;;;;;7.10;4.60;;;;;;;15.69;26.93;102025.31;4896945;28;97790;-72
2021/05/31 00:21:54;;;;;;;4.05;3.75;;;;;;;15.65;26.88;102033.31;4890804;28;99197;-70
2021/05/31 00:24:21;;;;;;;4.20;3.90;;;;;;;15.60;27.17;102034.97;4899806;28;97272;-70
2021/05/31 00:26:49;;;;;;;4.72;4.30;;;;;;;15.57;27.21;102032.22;4915466;28;97365;-71
2021/05/31 00:29:20;;;;;;;5.70;4.53;;;;;;;15.52;27.34;102037.47;4897589;28;98046;-71
2021/05/31 00:31:48;;;;;;;4.55;4.20;;;;;;;15.47;27.17;102043.63;4900113;28;100991;-72
2021/05/31 00:34:15;;;;;;;4.53;4.13;;;;;;;15.46;27.45;102048.13;4898629;28;97707;-72
2021/05/31 00:36:43;;;;;;;5.35;4.28;;;;;;;15.41;27.33;102044.41;4897563;28;98445;-71
2021/05/31 00:39:11;;;;;;;4.40;4.10;;;;;;;15.38;27.21;102032.69;4898529;28;97866;-71
2021/05/31 00:41:39;;;;;;;4.70;4.15;;;;;;;15.33;27.42;102032.63;4900482;28;97733;-71
2021/05/31 00:44:07;;;;;;;5.22;4.50;;;;;;;15.29;27.13;102041.47;4899362;28;97541;-72
2021/05/31 00:46:34;;;;;;;4.53;4.18;;;;;;;15.25;27.24;102030.63;4898440;28;96938;-70
2021/05/31 00:49:02;;;;;;;5.65;4.20;;;;;;;15.20;27.36;102032.28;4898123;28;99733;-71
2021/05/31 00:51:30;;;;;;;4.72;4.32;;;;;;;15.15;27.46;102024.16;4912990;28;99658;-71
2021/05/31 00:53:58;;;;;;;4.50;4.20;;;;;;;15.12;27.26;102030.34;4895579;28;98358;-71
2021/05/31 00:56:26;;;;;;;4.95;4.30;;;;;;;15.09;27.58;102027.59;4897896;28;96938;-72
2021/05/31 00:58:54;;;;;;;5.68;4.22;;;;;;;15.03;27.41;102030.13;4897168;28;100688;-71
2021/05/31 01:01:22;;;;;;;8.00;4.75;;;;;;;14.98;27.60;102037.16;4898731;28;99661;-71
2021/05/31 01:03:50;;;;;;;5.43;4.43;;;;;;;14.92;27.78;102031.66;4898471;28;96802;-71
2021/05/31 01:06:20;;;;;;;5.65;4.50;;;;;;;14.93;27.49;102033.50;4898930;28;97791;-70
2021/05/31 01:08:55;;;;;;;4.68;4.28;;;;;;;14.90;27.47;102032.50;4880739;28;97383;-71
2021/05/31 01:11:31;;;;;;;5.15;4.28;;;;;;;14.89;27.84;102030.69;4898012;28;98556;-71
2021/05/31 01:14:06;;;;;;;4.45;4.10;;;;;;;14.84;27.78;102030.59;4897206;28;97126;-71
2021/05/31 01:16:37;;;;;;;4.30;3.90;;;;;;;14.83;27.89;102019.81;4898064;28;97737;-71
2021/05/31 01:19:09;;;;;;;7.97;4.55;;;;;;;14.83;27.60;102019.81;4898972;28;101148;-70
2021/05/31 01:21:45;;;;;;;5.57;4.85;;;;;;;14.84;27.65;102022.56;4896515;28;100972;-71
2021/05/31 01:24:24;;;;;;;7.10;4.80;;;;;;;14.81;27.92;102019.78;4898982;28;98893;-70
2021/05/31 01:27:00;;;;;;;5.63;5.13;;;;;;;14.80;27.92;102014.38;4903257;28;97622;-70
2021/05/31 01:29:29;;;;;;;5.10;4.65;;;;;;;14.78;27.71;102013.44;4910341;28;97930;-71
2021/05/31 01:31:59;;;;;;;5.43;4.63;;;;;;;14.76;27.63;102017.84;4898521;28;97901;-71
2021/05/31 01:34:28;;;;;;;4.43;4.13;;;;;;;14.75;27.93;102010.72;4897918;28;97298;-71
2021/05/31 01:36:59;;;;;;;5.03;4.63;;;;;;;14.75;27.81;102016.06;4914779;28;98054;-70
2021/05/31 01:39:30;;;;;;;5.75;4.50;;;;;;;14.72;28.08;102007.94;4874674;28;97867;-70
2021/05/31 01:41:57;;;;;;;4.82;4.40;;;;;;;14.70;27.85;102002.53;4895694;28;100449;-70
2021/05/31 01:44:25;;;;;;;7.60;4.72;;;;;;;14.70;27.98;102007.03;4897801;28;97491;-71
2021/05/31 01:46:55;;;;;;;4.47;4.18;;;;;;;14.69;28.03;102005.19;4897539;28;96920;-71
2021/05/31 01:49:22;;;;;;;5.80;4.90;;;;;;;14.64;28.01;102004.19;4894580;28;100809;-71
2021/05/31 01:51:50;;;;;;;4.70;4.30;;;;;;;14.63;27.99;102007.72;4912461;28;99596;-71
2021/05/31 01:54:18;;;;;;;5.07;4.45;;;;;;;14.59;28.15;102004.06;4898886;28;97700;-70
2021/05/31 01:56:48;;;;;;;5.50;4.40;;;;;;;14.57;28.24;102011.16;4893389;28;97557;-70
2021/05/31 01:59:17;;;;;;;5.07;4.68;;;;;;;14.56;28.09;102003.09;4896918;28;97938;-69
2021/05/31 02:01:46;;;;;;;4.78;4.43;;;;;;;14.52;28.21;102006.50;4890082;28;100880;-71
2021/05/31 02:04:15;;;;;;;5.10;4.60;;;;;;;14.48;28.11;102004.66;4891891;28;97714;-70
2021/05/31 02:06:43;;;;;;;5.68;4.95;;;;;;;14.44;28.23;101997.41;4895516;28;98615;-71
2021/05/31 02:09:10;;;;;;;5.65;4.90;;;;;;;14.41;28.18;101997.34;4894238;28;101110;-71
2021/05/31 02:11:43;;;;;;;4.85;4.35;;;;;;;14.41;28.23;101991.97;4895222;28;98692;-71
2021/05/31 02:14:14;;;;;;;5.15;4.75;;;;;;;14.40;28.16;101990.16;4894136;28;98232;-71
2021/05/31 02:16:47;;;;;;;4.80;4.47;;;;;;;14.42;28.30;101991.09;4879368;28;97466;-70
2021/05/31 02:19:17;;;;;;;5.10;4.70;;;;;;;14.40;28.05;101996.44;4911178;28;100687;-70
2021/05/31 02:21:44;;;;;;;5.32;4.82;;;;;;;14.40;28.22;101995.50;4889045;28;98738;-70
2021/05/31 02:24:12;;;;;;;5.18;4.68;;;;;;;14.38;28.33;101997.25;4895694;28;97409;-71
2021/05/31 02:26:39;;;;;;;6.75;5.07;;;;;;;14.37;28.24;101995.44;4902802;28;97791;-71
2021/05/31 02:29:07;;;;;;;6.40;4.68;;;;;;;14.36;28.24;101993.63;4909532;28;100333;-74
2021/05/31 02:31:34;;;;;;;5.68;4.47;;;;;;;14.34;28.32;101995.34;4896221;28;100591;-71
2021/05/31 02:34:01;;;;;;;7.20;5.80;;;;;;;14.31;28.21;101992.59;4897348;28;96992;-71
2021/05/31 02:36:30;;;;;;;5.22;4.78;;;;;;;14.30;28.38;101996.16;4901968;28;97131;-71
2021/05/31 02:38:58;;;;;;;5.25;4.75;;;;;;;14.26;28.40;101991.59;4895489;28;100288;-72
2021/05/31 02:41:25;;;;;;;6.05;5.00;;;;;;;14.24;28.17;102004.03;4906253;28;97643;-73
2021/05/31 02:43:53;;;;;;;6.07;4.82;;;;;;;14.21;28.40;102002.16;4897409;28;98792;-71
2021/05/31 02:46:20;;;;;;;7.55;6.10;;;;;;;14.23;28.35;101996.84;4897533;28;97902;-73
2021/05/31 02:48:49;;;;;;;5.40;4.90;;;;;;;14.20;28.28;101996.78;4895022;28;99759;-73
2021/05/31 02:51:16;;;;;;;5.13;4.72;;;;;;;14.17;28.39;101990.47;4897567;28;101763;-74
2021/05/31 02:53:45;;;;;;;5.47;4.97;;;;;;;14.12;28.21;101999.25;4897479;28;98682;-73
2021/05/31 02:56:12;;;;;;;5.82;5.20;;;;;;;14.09;28.40;101994.75;4894723;28;98995;-73
2021/05/31 02:58:40;;;;;;;4.75;4.38;;;;;;;14.06;28.42;101991.97;4897347;28;98883;-71
2021/05/31 03:01:07;;;;;;;5.15;4.50;;;;;;;14.06;28.16;101991.09;4897984;28;99168;-71
2021/05/31 03:03:35;;;;;;;4.63;4.22;;;;;;;14.03;28.29;101989.22;4905468;28;96798;-73
2021/05/31 03:06:02;;;;;;;5.03;4.63;;;;;;;14.03;28.17;101994.59;4902683;28;97506;-71
2021/05/31 03:08:30;;;;;;;5.38;4.88;;;;;;;14.02;28.38;101998.09;4896451;28;99640;-70
2021/05/31 03:10:58;;;;;;;5.53;5.00;;;;;;;13.77;28.61;101987.59;4896472;28;100427;-71
2021/05/31 03:13:26;;;;;;;5.40;4.65;;;;;;;13.70;28.70;101995.41;4911253;28;96910;-71
2021/05/31 03:15:54;;;;;;;5.28;4.57;;;;;;;13.67;28.91;102001.59;4912786;28;97130;-70
2021/05/31 03:18:21;;;;;;;5.22;4.72;;;;;;;13.66;28.81;101996.19;4904453;28;98578;-74
2021/05/31 03:20:49;;;;;;;4.10;3.80;;;;;;;13.64;28.85;102003.28;4905602;28;98468;-74
2021/05/31 03:23:16;;;;;;;8.55;4.95;;;;;;;13.62;28.96;101999.66;4890051;28;97251;-73
2021/05/31 03:25:43;;;;;;;4.53;4.13;;;;;;;13.62;28.96;101999.66;4897922;28;97089;-72
2021/05/31 03:28:12;;;;;;;4.88;4.43;;;;;;;13.58;29.00;102001.34;4898307;28;97887;-73
2021/05/31 03:30:39;;;;;;;8.13;6.47;;;;;;;13.55;29.00;101998.56;4896760;28;98899;-73
2021/05/31 03:33:06;;;;;;;6.75;5.30;;;;;;;13.52;28.85;102003.81;4898286;28;99953;-72
2021/05/31 03:35:34;;;;;;;5.72;4.70;;;;;;;13.52;28.97;101994.88;4889169;28;97095;-71
2021/05/31 03:38:01;;;;;;;5.22;4.72;;;;;;;13.49;28.86;102006.44;4900295;28;99482;-72
2021/05/31 03:40:28;;;;;;;5.15;4.18;;;;;;;13.48;29.03;102006.34;4898279;28;98806;-72
2021/05/31 03:42:56;;;;;;;7.55;5.18;;;;;;;13.47;28.89;102005.47;4897819;28;97538;-72
2021/05/31 03:45:25;;;;;;;6.07;5.13;;;;;;;13.48;28.92;102007.25;4899369;28;97278;-70
2021/05/31 03:47:52;;;;;;;5.00;4.55;;;;;;;13.46;29.03;102008.09;4900136;28;100300;-71
2021/05/31 03:50:20;;;;;;;4.93;4.53;;;;;;;13.44;29.03;102004.47;4913121;28;99288;-73
2021/05/31 03:52:49;;;;;;;5.65;5.05;;;;;;;13.43;29.02;102002.66;4900912;28;98004;-72
2021/05/31 03:55:17;;;;;;;5.55;4.65;;;;;;;13.41;29.03;102001.69;4898972;28;97463;-74
2021/05/31 03:57:45;;;;;;;5.63;4.22;;;;;;;13.39;28.95;102007.00;4903565;28;98904;-72
2021/05/31 04:00:14;;;;;;;5.50;5.00;;;;;;;13.39;29.04;101998.06;4897899;28;99146;-72
2021/05/31 04:02:43;;;;;;;12.73;10.10;;;;;;;13.43;29.02;102003.56;4886067;28;97054;-74
2021/05/31 04:05:14;;;;;;;39.78;21.60;;;;;;;13.39;29.18;102006.09;4893799;28;97875;-73
2021/05/31 04:13:17;;;;;;;5.05;4.55;;;;;;;13.34;29.05;101997.94;4904728;28;97604;-69
2021/05/31 04:15:44;;;;;;;5.75;4.80;;;;;;;13.36;29.03;101998.91;4898039;28;98136;-70
2021/05/31 04:18:13;;;;;;;5.20;4.60;;;;;;;13.36;29.10;102008.69;4900874;28;97630;-69
2021/05/31 04:20:40;;;;;;;5.10;4.60;;;;;;;13.36;29.00;102003.34;4892300;28;99006;-70
2021/05/31 04:23:08;;;;;;;9.43;4.55;;;;;;;13.34;29.03;102008.66;4893754;28;98841;-69
2021/05/31 04:25:35;;;;;;;6.00;4.65;;;;;;;13.33;29.09;102005.94;4904067;28;98145;-69
2021/05/31 04:28:03;;;;;;;5.28;4.78;;;;;;;13.30;29.08;102012.09;4895799;28;101006;-70
2021/05/31 04:30:31;;;;;;;10.43;8.18;;;;;;;13.30;29.01;102009.41;4896873;28;99653;-69
2021/05/31 04:32:58;;;;;;;70.20;34.47;;;;;;;13.29;28.99;102007.63;4888464;28;97849;-64
2021/05/31 04:35:27;;;;;;;52.90;28.40;;;;;;;13.30;29.00;102006.72;4895161;28;96969;-69
2021/05/31 04:37:56;;;;;;;7.05;6.35;;;;;;;13.33;28.84;102009.50;4896858;28;97994;-72
2021/05/31 04:40:24;;;;;;;5.93;4.70;;;;;;;13.29;29.03;102004.03;4881179;28;99629;-68
2021/05/31 04:42:51;;;;;;;4.82;4.43;;;;;;;13.22;29.00;102013.66;4881049;28;96839;-68
2021/05/31 04:45:19;;;;;;;5.97;4.65;;;;;;;13.21;29.06;102016.25;4880289;28;97396;-69
2021/05/31 04:47:46;;;;;;;4.90;4.38;;;;;;;13.18;29.23;102011.72;4898665;28;98164;-70
2021/05/31 04:50:15;;;;;;;7.97;5.30;;;;;;;13.15;29.14;102014.28;4905747;28;97963;-70
2021/05/31 04:52:43;;;;;;;5.10;4.32;;;;;;;13.13;29.29;102024.03;4896768;28;97541;-70
2021/05/31 04:55:15;;;;;;;4.30;4.00;;;;;;;13.07;29.26;102013.16;4893916;28;98091;-70
2021/05/31 04:57:42;;;;;;;4.85;4.38;;;;;;;13.07;29.46;102018.53;4896109;28;97658;-69
2021/05/31 05:00:11;;;;;;;6.18;4.60;;;;;;;13.04;29.51;102022.00;4898610;28;100539;-70
2021/05/31 05:02:39;;;;;;;6.13;4.45;;;;;;;13.09;29.34;102022.16;4901567;28;96800;-70
2021/05/31 05:05:07;;;;;;;19.73;11.90;;;;;;;13.09;29.37;102022.16;4893199;28;97545;-70
2021/05/31 05:07:35;;;;;;;8.98;7.00;;;;;;;13.13;29.33;102021.34;4877146;28;99386;-69
2021/05/31 05:10:05;;;;;;;5.32;4.55;;;;;;;13.11;29.43;102018.63;4898438;28;97939;-71
2021/05/31 05:12:32;;;;;;;4.70;4.30;;;;;;;13.13;29.38;102018.69;4898850;28;96973;-71
2021/05/31 05:14:59;;;;;;;4.75;4.45;;;;;;;13.14;29.43;102021.44;4897534;28;97199;-71
2021/05/31 05:17:27;;;;;;;4.68;4.28;;;;;;;13.17;29.38;102020.59;4897039;28;99429;-72
2021/05/31 05:19:54;;;;;;;4.60;4.20;;;;;;;13.15;29.32;102014.28;4897216;28;99378;-72
2021/05/31 05:22:21;;;;;;;4.68;4.28;;;;;;;13.17;29.36;102015.25;4893613;28;98674;-72
2021/05/31 05:24:48;;;;;;;4.70;4.20;;;;;;;13.18;29.51;102017.06;4903471;28;97463;-71
2021/05/31 05:27:17;;;;;;;5.55;5.00;;;;;;;13.20;29.30;102018.03;4898153;28;101203;-72
2021/05/31 05:29:46;;;;;;;5.03;4.55;;;;;;;13.20;29.40;102015.38;4912116;28;98759;-72
2021/05/31 05:32:13;;;;;;;5.43;4.93;;;;;;;13.21;29.45;102010.91;4896518;28;97314;-72
2021/05/31 05:34:40;;;;;;;64.50;30.83;;;;;;;13.21;29.32;102011.81;4897039;28;96972;-72
2021/05/31 05:37:10;;;;;;;19.20;11.25;;;;;;;13.23;29.52;102014.53;4897667;28;99350;-72
2021/05/31 05:39:58;;;;;;;5.85;4.60;;;;;;;13.26;29.47;102018.19;4893089;28;102623;-71
2021/05/31 05:42:39;;;;;;;6.15;4.75;;;;;;;13.30;29.39;102012.09;4894475;28;97111;-71
2021/05/31 05:45:25;;;;;;;5.18;4.15;;;;;;;13.34;29.34;102016.66;4894754;28;97218;-72
2021/05/31 05:47:52;;;;;;;6.35;5.07;;;;;;;13.38;29.22;102010.56;4878630;28;100708;-71
2021/05/31 05:50:22;;;;;;;5.55;5.05;;;;;;;13.41;29.25;102015.97;4911500;28;99955;-72
2021/05/31 05:52:49;;;;;;;7.35;4.45;;;;;;;13.43;29.31;102003.56;4898636;28;97144;-72
2021/05/31 05:55:17;;;;;;;6.18;4.32;;;;;;;13.47;29.36;102012.56;4896782;28;97299;-71
2021/05/31 05:57:46;;;;;;;4.95;4.50;;;;;;;13.49;29.29;102013.53;4900464;28;100345;-72
2021/05/31 06:00:17;;;;;;;5.13;4.63;;;;;;;13.51;29.50;102018.06;4896299;28;100412;-72
2021/05/31 06:02:45;;;;;;;6.28;4.43;;;;;;;13.56;29.18;102016.44;4889170;28;97319;-71
2021/05/31 06:05:13;;;;;;;6.15;5.28;;;;;;;13.59;29.23;102013.84;4895862;28;96836;-71
2021/05/31 06:07:41;;;;;;;4.90;4.40;;;;;;;13.60;29.32;102022.78;4878975;28;99323;-71
2021/05/31 06:10:10;;;;;;;5.93;5.25;;;;;;;13.63;29.26;102028.19;4888239;28;98062;-72
2021/05/31 06:12:38;;;;;;;5.40;4.90;;;;;;;13.65;29.24;102022.03;4885193;28;99829;-72
2021/05/31 06:15:08;;;;;;;5.00;4.60;;;;;;;13.64;29.34;102019.31;4894952;28;97554;-71
2021/05/31 06:17:35;;;;;;;5.22;4.70;;;;;;;13.66;29.34;102028.31;4892388;28;99585;-72
2021/05/31 06:20:04;;;;;;;5.57;4.35;;;;;;;13.72;29.35;102033.81;4895954;28;99338;-72
2021/05/31 06:22:32;;;;;;;7.57;4.60;;;;;;;13.78;29.32;102032.22;4894115;28;97858;-71
2021/05/31 06:25:00;;;;;;;5.40;4.80;;;;;;;13.83;29.20;102032.38;4892440;28;96964;-71
2021/05/31 06:27:28;;;;;;;6.97;4.68;;;;;;;13.84;29.25;102029.72;4887775;28;97835;-70
2021/05/31 06:29:55;;;;;;;32.03;19.42;;;;;;;13.90;29.15;102032.59;4893975;28;100469;-71
2021/05/31 06:32:24;;;;;;;10.40;7.18;;;;;;;13.94;29.13;102034.50;4896198;28;97875;-71
2021/05/31 06:34:51;;;;;;;5.13;4.60;;;;;;;14.00;29.17;102023.03;4896883;28;97465;-71
2021/05/31 06:37:19;;;;;;;6.68;5.07;;;;;;;14.07;28.98;102025.00;4896805;28;100697;-71
2021/05/31 06:39:46;;;;;;;8.55;4.53;;;;;;;14.10;29.17;102023.31;4897781;28;97691;-70
2021/05/31 06:42:13;;;;;;;5.00;4.40;;;;;;;14.17;29.08;102016.34;4898465;28;96803;-71
2021/05/31 06:44:41;;;;;;;5.07;4.60;;;;;;;14.20;29.03;102013.75;4896373;28;97733;-75
2021/05/31 06:47:08;;;;;;;5.32;4.82;;;;;;;14.25;29.08;102012.09;4897566;28;97687;-70
2021/05/31 06:49:37;;;;;;;4.72;4.30;;;;;;;14.32;28.90;102005.09;4886986;28;97848;-70
2021/05/31 06:52:05;;;;;;;3.97;3.67;;;;;;;14.34;28.86;102011.41;4897308;28;97408;-71
2021/05/31 06:54:33;;;;;;;10.18;4.80;;;;;;;14.40;28.89;102011.59;4899346;28;96974;-71
2021/05/31 06:57:00;;;;;;;5.20;4.32;;;;;;;14.45;28.80;102012.59;4879838;28;100729;-71
2021/05/31 06:59:28;;;;;;;16.15;7.03;;;;;;;14.49;28.96;102017.16;4893887;28;99342;-72
2021/05/31 07:01:55;;;;;;;4.97;4.32;;;;;;;14.51;28.81;102010.06;4889698;28;98001;-70
2021/05/31 07:04:52;;;;;;;44.95;23.42;;;;;;;14.56;28.62;102013.78;4894976;28;96920;-71
2021/05/31 07:07:20;;;;;;;11.20;7.28;;;;;;;14.60;28.54;102021.03;4878508;28;99527;-71
2021/05/31 07:09:48;;;;;;;5.20;4.47;;;;;;;14.63;28.75;102021.09;4912762;28;99096;-71
2021/05/31 07:12:16;;;;;;;5.90;5.15;;;;;;;14.68;28.51;102014.13;4912463;28;98085;-72
2021/05/31 07:14:45;;;;;;;8.88;4.45;;;;;;;14.74;28.56;102015.16;4898257;28;96778;-70
2021/05/31 07:17:12;;;;;;;6.50;4.22;;;;;;;14.80;28.74;102009.03;4893842;28;97643;-71
2021/05/31 07:19:40;;;;;;;7.15;4.85;;;;;;;14.82;28.22;102012.66;4896723;28;97772;-71
2021/05/31 07:22:09;;;;;;;4.50;4.10;;;;;;;14.88;28.31;102012.81;4911600;28;97710;-72
2021/05/31 07:24:37;;;;;;;3.53;3.33;;;;;;;14.89;28.15;102006.56;4895313;28;97417;-71
2021/05/31 07:27:05;;;;;;;4.35;3.95;;;;;;;14.96;28.42;102012.09;4865279;28;99842;-71
2021/05/31 07:29:32;;;;;;;61.38;33.08;;;;;;;15.01;28.15;102010.41;4883048;28;100472;-71
2021/05/31 07:32:00;;;;;;;8.65;5.80;;;;;;;15.03;28.05;102000.63;4896845;28;97525;-71
2021/05/31 07:34:27;;;;;;;4.88;4.32;;;;;;;15.04;28.22;102004.22;4897472;28;97352;-71
2021/05/31 07:36:54;;;;;;;7.10;4.90;;;;;;;15.06;28.14;102007.84;4896077;28;97828;-71
2021/05/31 07:39:23;;;;;;;4.40;4.00;;;;;;;15.09;28.04;101999.88;4896679;28;97823;-72
2021/05/31 07:41:50;;;;;;;4.30;3.72;;;;;;;15.17;27.88;101995.59;4888052;28;97791;-70
2021/05/31 07:44:18;;;;;;;5.68;3.72;;;;;;;15.23;27.77;102008.22;4896501;28;98328;-71
2021/05/31 07:46:45;;;;;;;3.67;3.38;;;;;;;15.29;27.64;101998.56;4893122;28;99966;-71
2021/05/31 07:49:12;;;;;;;4.00;3.60;;;;;;;15.31;27.54;101991.44;4908006;28;100480;-71
2021/05/31 07:51:44;;;;;;;5.45;3.40;;;;;;;15.37;27.81;102001.41;4884727;28;97931;-71
2021/05/31 07:54:12;;;;;;;4.28;3.25;;;;;;;15.44;27.45;101996.19;4894865;28;97209;-71
2021/05/31 07:56:41;;;;;;;3.47;3.17;;;;;;;15.48;27.44;101998.06;4893481;28;97984;-70
2021/05/31 07:59:08;;;;;;;58.80;31.27;;;;;;;15.52;27.41;101997.25;4893346;28;98892;-70
2021/05/31 08:01:36;;;;;;;9.25;6.82;;;;;;;15.54;27.23;101997.28;4897291;28;97754;-70
2021/05/31 08:04:06;;;;;;;5.47;3.50;;;;;;;15.43;27.30;101997.06;4880140;28;96848;-71
2021/05/31 08:06:34;;;;;;;4.75;3.65;;;;;;;15.43;27.26;101996.16;4893433;28;99406;-72
2021/05/31 08:09:02;;;;;;;3.72;3.40;;;;;;;15.50;26.98;101990.06;4879681;28;100371;-71
2021/05/31 08:11:29;;;;;;;3.92;3.58;;;;;;;15.45;27.33;101989.94;4894780;28;96714;-71
2021/05/31 08:13:58;;;;;;;4.30;3.70;;;;;;;15.45;27.14;101987.25;4892141;28;97086;-71
2021/05/31 08:16:25;;;;;;;5.40;3.78;;;;;;;15.44;27.15;101988.16;4898656;28;99140;-71
2021/05/31 08:18:53;;;;;;;3.03;2.83;;;;;;;15.51;27.32;101984.72;4898202;28;98951;-70
2021/05/31 08:21:20;;;;;;;3.00;2.90;;;;;;;15.59;26.85;101988.47;4898780;28;96991;-71
2021/05/31 08:23:47;;;;;;;4.35;4.05;;;;;;;15.68;26.79;101995.78;4896237;28;97531;-71
2021/05/31 08:26:19;;;;;;;3.92;3.63;;;;;;;15.72;27.09;101986.91;4898084;28;100198;-71
2021/05/31 08:28:46;;;;;;;4.75;3.72;;;;;;;15.76;27.17;101989.69;4895829;28;100849;-72
2021/05/31 08:31:15;;;;;;;3.70;3.40;;;;;;;15.78;26.73;101990.59;4896841;28;97148;-71
2021/05/31 08:33:43;;;;;;;4.53;3.40;;;;;;;15.84;26.89;101989.81;4897012;28;98919;-71
2021/05/31 08:36:10;;;;;;;9.57;6.10;;;;;;;15.91;27.03;101983.69;4897125;28;100726;-72
2021/05/31 08:38:37;;;;;;;49.33;28.35;;;;;;;15.97;26.78;101986.50;4896180;28;100440;-71
2021/05/31 08:41:05;;;;;;;30.60;19.08;;;;;;;16.02;26.59;101992.88;4877977;28;97237;-71
2021/05/31 08:43:32;;;;;;;52.25;30.08;;;;;;;16.08;26.71;101993.91;4893982;28;97637;-71
2021/05/31 08:45:59;;;;;;;16.23;9.57;;;;;;;16.19;26.64;101987.81;4895260;28;98075;-72
2021/05/31 08:48:28;;;;;;;5.65;4.30;;;;;;;16.23;26.40;101979.84;4899560;28;97351;-70
2021/05/31 08:50:56;;;;;;;54.63;27.02;;;;;;;16.28;26.70;101979.91;4911516;28;97169;-71
2021/05/31 08:53:23;;;;;;;12.57;8.63;;;;;;;16.27;26.38;101983.47;4896800;28;97158;-70
2021/05/31 08:55:51;;;;;;;37.78;25.13;;;;;;;16.34;26.68;101980.94;4897154;28;99317;-71
2021/05/31 08:58:19;;;;;;;12.93;8.73;;;;;;;16.44;26.53;101984.63;4896740;28;99222;-70
2021/05/31 09:00:46;;;;;;;4.60;3.97;;;;;;;16.43;26.29;101983.75;4897595;28;96898;-71
2021/05/31 09:03:13;;;;;;;4.10;3.63;;;;;;;16.51;26.23;101973.09;4895836;28;97608;-71
2021/05/31 09:05:43;;;;;;;6.57;4.10;;;;;;;16.48;26.33;101978.44;4880608;28;99516;-71
2021/05/31 09:08:12;;;;;;;54.03;28.80;;;;;;;16.54;26.42;101979.44;4898660;28;98415;-70
2021/05/31 09:10:44;;;;;;;24.48;15.45;;;;;;;16.63;26.13;101976.00;4898892;28;97177;-71
2021/05/31 09:13:13;;;;;;;6.70;4.80;;;;;;;16.68;26.01;101975.19;4899696;28;97464;-72
2021/05/31 09:15:44;;;;;;;6.20;5.03;;;;;;;16.72;25.77;101977.09;4897793;28;98555;-71
2021/05/31 09:18:11;;;;;;;4.68;3.50;;;;;;;16.77;25.84;101967.28;4898555;28;97512;-71
2021/05/31 09:20:39;;;;;;;3.50;3.25;;;;;;;16.78;25.29;101962.81;4914744;28;96969;-71
2021/05/31 09:23:07;;;;;;;4.38;3.97;;;;;;;16.87;25.45;101968.34;4899270;28;97038;-72
2021/05/31 09:25:35;;;;;;;3.88;3.25;;;;;;;16.88;25.51;101964.75;4911678;28;99015;-71
2021/05/31 09:28:10;;;;;;;4.13;3.13;;;;;;;16.95;25.13;101966.63;4896572;28;99363;-72
2021/05/31 09:30:40;;;;;;;3.42;2.90;;;;;;;16.96;25.17;101963.09;4899289;28;97303;-71
2021/05/31 09:33:08;;;;;;;3.33;3.00;;;;;;;16.99;25.09;101971.19;4898062;28;98111;-71
2021/05/31 09:35:38;;;;;;;4.95;4.15;;;;;;;17.03;25.08;101955.13;4897336;28;97529;-71
2021/05/31 09:38:07;;;;;;;3.65;3.33;;;;;;;17.09;24.91;101959.66;4895203;28;99465;-71
2021/05/31 09:40:34;;;;;;;4.10;3.03;;;;;;;17.12;24.71;101958.78;4897147;28;98136;-70
2021/05/31 09:43:04;;;;;;;3.30;3.10;;;;;;;17.15;24.88;101959.75;4896538;28;97121;-71
2021/05/31 09:45:33;;;;;;;3.92;3.20;;;;;;;17.18;24.65;101956.19;4914172;28;100449;-71
2021/05/31 09:48:01;;;;;;;2.67;2.53;;;;;;;17.22;24.59;101953.53;4898024;28;98771;-72
2021/05/31 09:50:29;;;;;;;2.83;2.63;;;;;;;17.28;24.49;101948.25;4896843;28;97347;-72
2021/05/31 09:53:06;;;;;;;3.90;2.63;;;;;;;17.35;24.33;101941.13;4898069;28;98035;-71
2021/05/31 09:55:37;;;;;;;8.00;5.22;;;;;;;17.40;24.32;101939.47;4895218;28;100917;-71
2021/05/31 09:58:09;;;;;;;8.18;6.25;;;;;;;17.44;24.16;101935.88;4897300;28;101126;-72
2021/05/31 10:00:37;;;;;;;17.20;11.30;;;;;;;17.50;24.17;101938.66;4912499;28;97746;-71
2021/05/31 10:03:15;;;;;;;5.63;5.10;;;;;;;17.57;23.90;101936.06;4898423;28;97204;-72
2021/05/31 10:05:47;;;;;;;6.53;3.08;;;;;;;17.53;24.34;101936.03;4909558;28;98804;-72
2021/05/31 10:11:01;;;;;;;4.05;3.20;;;;;;;17.57;23.95;101921.69;4895462;28;98115;-71
2021/05/31 10:13:29;;;;;;;2.80;2.60;;;;;;;17.60;23.77;101924.44;4912790;28;98044;-72
2021/05/31 10:15:57;;;;;;;2.47;2.38;;;;;;;17.68;23.79;101920.91;4897906;28;99239;-71
2021/05/31 10:18:26;;;;;;;2.75;2.50;;;;;;;17.73;23.89;101929.06;4895657;28;100737;-70
2021/05/31 10:20:53;;;;;;;5.53;3.63;;;;;;;17.75;23.86;101920.09;4898861;28;98026;-71
2021/05/31 10:23:21;;;;;;;2.97;2.72;;;;;;;17.80;23.80;101918.34;4897845;28;96826;-70
2021/05/31 10:25:51;;;;;;;3.13;2.60;;;;;;;17.85;23.76;101919.31;4907156;28;99134;-70
2021/05/31 10:28:22;;;;;;;3.13;2.83;;;;;;;17.90;23.68;101914.84;4894586;28;98873;-70
2021/05/31 10:30:51;;;;;;;2.60;2.50;;;;;;;17.96;23.66;101901.44;4895951;28;97223;-70
2021/05/31 10:33:20;;;;;;;2.55;2.45;;;;;;;18.01;23.59;101899.69;4893716;28;97385;-69
2021/05/31 10:35:48;;;;;;;2.67;2.58;;;;;;;18.13;23.43;101908.78;4895621;28;98278;-70
2021/05/31 10:38:18;;;;;;;3.47;2.85;;;;;;;18.20;23.47;101910.66;4910686;28;99281;-70
2021/05/31 10:40:48;;;;;;;4.05;3.42;;;;;;;18.19;23.30;101900.75;4898252;28;96882;-70
2021/05/31 10:43:16;;;;;;;3.00;2.67;;;;;;;18.27;23.49;101901.72;4914031;28;98166;-70
2021/05/31 10:45:45;;;;;;;2.75;2.63;;;;;;;18.31;23.21;101904.47;4896025;28;100442;-70
2021/05/31 10:48:15;;;;;;;5.65;2.80;;;;;;;18.36;23.21;101896.38;4894783;28;97746;-69
2021/05/31 10:50:44;;;;;;;4.88;4.45;;;;;;;18.45;23.36;101900.06;4897638;28;97181;-69
2021/05/31 10:53:25;;;;;;;4.03;3.45;;;;;;;18.57;22.57;101894.72;4903384;28;97440;-68
2021/05/31 10:55:55;;;;;;;3.63;2.95;;;;;;;18.61;23.26;101896.53;4881910;28;99064;-69
2021/05/31 10:58:24;;;;;;;4.13;3.03;;;;;;;18.69;23.01;101896.63;4896979;28;99420;-69
2021/05/31 11:01:01;;;;;;;2.60;2.40;;;;;;;18.81;22.29;101897.59;4898457;28;97971;-69
2021/05/31 11:03:29;;;;;;;3.80;2.60;;;;;;;18.87;22.86;101894.03;4895043;28;96727;-68
2021/05/31 11:05:57;;;;;;;3.85;2.30;;;;;;;18.94;22.76;101888.66;4897657;28;97757;-70
2021/05/31 11:08:26;;;;;;;2.40;2.30;;;;;;;19.03;22.80;101888.69;4898119;28;98873;-69
2021/05/31 11:10:56;;;;;;;3.67;2.53;;;;;;;19.12;22.89;101887.81;4897791;28;97184;-70
2021/05/31 11:13:23;;;;;;;3.00;2.80;;;;;;;19.22;22.60;101886.06;4894554;28;98050;-70
2021/05/31 11:16:05;;;;;;;41.47;22.75;;;;;;;19.30;22.06;101882.47;4896522;28;99291;-70
2021/05/31 11:18:41;;;;;;;9.70;7.20;;;;;;;19.33;22.68;101879.84;4912370;28;99355;-69
2021/05/31 11:21:09;;;;;;;2.80;2.47;;;;;;;19.38;22.40;101875.34;4894447;28;96951;-70
2021/05/31 11:23:37;;;;;;;2.55;2.33;;;;;;;19.42;22.32;101865.44;4893791;28;96992;-69
2021/05/31 11:26:05;;;;;;;2.72;2.53;;;;;;;19.39;22.51;101870.84;4895087;28;100610;-70
2021/05/31 11:28:32;;;;;;;2.50;2.35;;;;;;;19.38;22.35;101867.25;4896851;28;97534;-69
2021/05/31 11:30:59;;;;;;;2.25;2.15;;;;;;;19.44;22.77;101871.75;4894552;28;97116;-70
2021/05/31 11:33:33;;;;;;;2.88;2.78;;;;;;;19.49;22.10;101867.25;4894727;28;97251;-69
2021/05/31 11:36:00;;;;;;;2.30;2.20;;;;;;;19.57;22.21;101870.88;4895521;28;99771;-69
2021/05/31 11:38:27;;;;;;;2.88;2.67;;;;;;;19.63;22.49;101865.47;4909506;28;98204;-69